Time;durP1;ratioP1;P1;durP2;ratioP2;P2;SDS_P1;SDS_P2;PMS_P1;PMS_P2;Temp;Humidity;BMP_temperature;BMP_pressure;BME280_temperature;BME280_humidity;BME280_pressure;Samples;Min_cycle;Max_cycle;Signal;HPM_P1;HPM_P2
2023/01/12 00:02:16;;;;;;;0.10;0.10;;;7.10;99.90;12.80;163505.00;;;;4959962;28;20226;-77
2023/01/12 00:04:44;;;;;;;0.10;0.10;;;7.00;99.90;12.80;163505.00;;;;4965036;28;20193;-77
2023/01/12 00:07:15;;;;;;;0.10;0.10;;;7.00;99.90;12.80;163505.00;;;;4975031;28;20221;-77
2023/01/12 00:09:43;;;;;;;0.10;0.10;;;7.00;99.90;12.80;163505.00;;;;4976179;28;20197;-78
2023/01/12 00:12:14;;;;;;;0.10;0.10;;;7.00;99.90;12.80;163505.00;;;;4967825;28;20216;-79
2023/01/12 00:14:43;;;;;;;0.10;0.10;;;7.00;99.90;12.80;163505.00;;;;4968378;28;20281;-79
2023/01/12 00:17:15;;;;;;;0.10;0.10;;;7.00;99.90;12.80;163505.00;;;;4980227;28;20279;-77
2023/01/12 00:19:43;;;;;;;0.10;0.10;;;7.00;99.90;12.80;163505.00;;;;4976148;28;20198;-77
2023/01/12 00:22:15;;;;;;;0.10;0.10;;;7.00;99.90;12.80;163505.00;;;;4961861;28;20218;-76
2023/01/12 00:24:46;;;;;;;0.10;0.10;;;7.00;99.90;12.80;163505.00;;;;4966898;28;20189;-76
2023/01/12 00:27:17;;;;;;;0.10;0.10;;;7.10;99.90;12.80;163505.00;;;;4976362;28;20221;-76
2023/01/12 00:29:46;;;;;;;0.10;0.10;;;7.00;99.90;12.80;163505.00;;;;4974998;28;20209;-77
2023/01/12 00:32:19;;;;;;;0.10;0.10;;;7.00;99.90;12.80;163505.00;;;;4976768;28;20232;-76
2023/01/12 00:34:47;;;;;;;0.10;0.10;;;7.00;99.90;12.80;163505.00;;;;4965870;28;20658;-77
2023/01/12 00:37:15;;;;;;;0.00;0.00;;;7.00;99.90;12.80;163505.00;;;;4956434;29;20201;-76
2023/01/12 00:39:43;;;;;;;0.10;0.10;;;7.00;99.90;12.80;163505.00;;;;4956755;28;20208;-75
2023/01/12 00:45:22;;;;;;;0.10;0.10;;;7.10;99.90;12.80;163505.00;;;;4962907;28;20217;-77
2023/01/12 00:47:52;;;;;;;0.10;0.10;;;7.10;99.90;12.80;163505.00;;;;4955998;29;20589;-76
2023/01/12 00:50:20;;;;;;;0.08;0.08;;;7.20;99.90;12.80;163505.00;;;;4955442;28;20225;-75
2023/01/12 00:52:48;;;;;;;0.10;0.10;;;7.20;99.90;12.80;163505.00;;;;4955666;28;20228;-75
2023/01/12 00:55:16;;;;;;;0.10;0.10;;;7.20;99.90;12.80;163505.00;;;;4960204;28;20222;-76
2023/01/12 00:57:44;;;;;;;0.10;0.10;;;7.20;99.90;12.80;163505.00;;;;4954993;29;20189;-76
2023/01/12 01:00:13;;;;;;;0.10;0.10;;;7.20;99.90;12.80;163505.00;;;;4954875;29;20198;-77
2023/01/12 01:02:41;;;;;;;0.10;0.10;;;7.20;99.90;12.80;163505.00;;;;4955681;28;20230;-76
2023/01/12 01:05:11;;;;;;;0.00;0.00;;;7.20;99.90;12.80;163505.00;;;;4966828;28;20240;-76
2023/01/12 01:07:39;;;;;;;0.10;0.10;;;7.20;99.90;12.80;163505.00;;;;4973592;28;20219;-77
2023/01/12 01:10:09;;;;;;;0.10;0.10;;;7.20;99.90;12.80;163505.00;;;;4974746;28;20194;-77
2023/01/12 01:12:37;;;;;;;0.10;0.10;;;7.30;99.90;12.80;163505.00;;;;4958856;28;20226;-77
2023/01/12 01:15:06;;;;;;;0.10;0.10;;;7.30;99.90;12.80;163505.00;;;;4955605;28;20245;-76
2023/01/12 01:17:34;;;;;;;0.10;0.10;;;7.30;99.90;12.80;163505.00;;;;4954671;29;20206;-77
2023/01/12 01:20:03;;;;;;;0.10;0.10;;;7.30;99.90;12.80;163505.00;;;;4937328;29;20198;-75
2023/01/12 01:22:33;;;;;;;0.10;0.10;;;7.20;99.90;12.80;163505.00;;;;4954422;28;20257;-76
2023/01/12 01:25:01;;;;;;;0.10;0.10;;;7.30;99.90;12.80;163505.00;;;;4955570;28;20247;-76
2023/01/12 01:27:29;;;;;;;0.10;0.10;;;7.30;99.90;12.80;163505.00;;;;4955303;29;20253;-76
2023/01/12 01:29:56;;;;;;;0.00;0.00;;;7.30;99.90;12.80;163505.00;;;;4954409;29;20585;-76
2023/01/12 01:32:24;;;;;;;0.10;0.10;;;7.30;99.90;12.80;163505.00;;;;4954512;28;20281;-76
2023/01/12 01:34:52;;;;;;;0.00;0.00;;;7.30;99.90;12.80;163505.00;;;;4966908;28;20197;-77
2023/01/12 01:37:20;;;;;;;0.10;0.10;;;7.30;99.90;12.80;163505.00;;;;4973426;28;20209;-76
2023/01/12 01:39:50;;;;;;;0.10;0.10;;;7.30;99.90;12.80;163505.00;;;;4973487;28;20193;-76
2023/01/12 01:42:27;;;;;;;0.10;0.10;;;7.30;99.90;12.80;163505.00;;;;4972667;28;20229;-76
2023/01/12 01:44:59;;;;;;;0.00;0.00;;;7.30;99.90;12.80;163505.00;;;;4959995;28;20256;-74
2023/01/12 01:47:38;;;;;;;0.10;0.10;;;7.30;99.90;12.80;163505.00;;;;4954327;29;20300;-76
2023/01/12 01:50:19;;;;;;;0.10;0.10;;;7.30;99.90;12.80;163505.00;;;;4959711;28;20260;-76
2023/01/12 01:52:52;;;;;;;0.10;0.10;;;7.30;99.90;12.80;163505.00;;;;4956287;28;20581;-76
2023/01/12 01:55:26;;;;;;;0.10;0.10;;;7.30;99.90;12.80;163505.00;;;;4970196;28;20252;-76
2023/01/12 01:57:59;;;;;;;0.10;0.10;;;7.30;99.90;12.80;163505.00;;;;4972855;28;20736;-79
2023/01/12 02:00:28;;;;;;;0.10;0.10;;;7.30;99.90;12.80;163505.00;;;;4954815;28;20198;-76
2023/01/12 02:02:59;;;;;;;0.10;0.10;;;7.30;99.90;12.80;163505.00;;;;4954544;28;20229;-76
2023/01/12 02:05:28;;;;;;;0.10;0.10;;;7.30;99.90;12.80;163505.00;;;;4956793;28;20292;-76
2023/01/12 02:08:08;;;;;;;0.10;0.10;;;7.30;99.90;12.80;163505.00;;;;4955399;29;20313;-77
2023/01/12 02:10:38;;;;;;;0.10;0.10;;;7.30;99.90;12.80;163505.00;;;;4958176;29;20645;-76
2023/01/12 02:16:20;;;;;;;0.10;0.10;;;7.30;99.90;12.80;163505.00;;;;4936380;29;20218;-76
2023/01/12 02:19:04;;;;;;;0.10;0.10;;;7.20;99.90;12.80;163505.00;;;;4954066;29;20189;-76
2023/01/12 02:22:46;;;;;;;0.10;0.10;;;7.20;99.90;12.80;163505.00;;;;4958057;28;20278;-76
2023/01/12 02:26:01;;;;;;;0.10;0.10;;;7.20;99.90;12.80;163505.00;;;;4973423;28;20193;-78
2023/01/12 02:29:18;;;;;;;0.10;0.10;;;7.10;99.90;12.80;163505.00;;;;4974758;28;20224;-78
2023/01/12 02:32:03;;;;;;;0.10;0.10;;;7.10;99.90;12.80;163505.00;;;;4967410;28;20483;-78
2023/01/12 02:34:41;;;;;;;0.00;0.00;;;7.10;99.90;12.80;163505.00;;;;4968092;28;20740;-77
2023/01/12 02:37:22;;;;;;;0.10;0.10;;;7.10;99.90;12.80;163505.00;;;;4992772;28;20192;-77
2023/01/12 02:39:58;;;;;;;0.10;0.10;;;7.10;99.90;12.80;163505.00;;;;4989134;28;20739;-77
2023/01/12 02:42:44;;;;;;;0.10;0.10;;;7.10;99.90;12.80;163505.00;;;;4982521;28;20228;-77
2023/01/12 02:45:28;;;;;;;0.10;0.10;;;7.10;99.90;12.80;163505.00;;;;4974537;28;20264;-77
2023/01/12 02:48:10;;;;;;;0.10;0.10;;;7.10;99.90;12.80;163505.00;;;;4974067;28;20217;-77
2023/01/12 02:50:47;;;;;;;0.00;0.00;;;7.10;99.90;12.80;163505.00;;;;4959722;29;20218;-77
2023/01/12 02:53:21;;;;;;;0.10;0.10;;;7.10;99.90;12.80;163505.00;;;;4977617;28;20202;-79
2023/01/12 02:55:50;;;;;;;0.00;0.00;;;7.10;99.90;12.80;163505.00;;;;4975611;28;20670;-77
2023/01/12 02:58:23;;;;;;;0.00;0.00;;;7.10;99.90;12.80;163505.00;;;;4974147;28;20666;-78
2023/01/12 03:00:56;;;;;;;0.10;0.10;;;7.10;99.90;12.80;163505.00;;;;4974509;28;20198;-78
2023/01/12 03:03:26;;;;;;;0.10;0.10;;;7.10;99.90;12.80;163505.00;;;;4972811;28;20252;-78
2023/01/12 03:05:58;;;;;;;0.10;0.10;;;7.10;99.90;12.80;163505.00;;;;4971450;28;20236;-79
2023/01/12 03:08:30;;;;;;;0.10;0.10;;;7.10;99.90;12.80;163505.00;;;;4973627;28;20213;-79
2023/01/12 03:11:11;;;;;;;0.10;0.10;;;7.10;99.90;12.80;163505.00;;;;4975365;28;20189;-79
2023/01/12 03:13:46;;;;;;;0.10;0.10;;;7.10;99.90;12.80;163505.00;;;;4958964;29;20204;-78
2023/01/12 03:16:20;;;;;;;0.10;0.10;;;7.10;99.90;12.80;163505.00;;;;4956759;29;20204;-77
2023/01/12 03:18:57;;;;;;;0.10;0.10;;;7.10;99.90;12.80;163505.00;;;;4955442;29;20190;-77
2023/01/12 03:21:32;;;;;;;0.10;0.10;;;7.10;99.90;12.80;163505.00;;;;4960045;28;20213;-78
2023/01/12 03:24:05;;;;;;;0.00;0.00;;;7.10;99.90;12.80;163505.00;;;;4969635;28;20244;-78
2023/01/12 03:26:40;;;;;;;0.10;0.10;;;7.20;99.90;12.80;163505.00;;;;4956126;29;20194;-78
2023/01/12 03:29:14;;;;;;;0.10;0.10;;;7.20;99.90;12.80;163505.00;;;;4956283;29;20233;-78
2023/01/12 03:31:42;;;;;;;0.10;0.10;;;7.20;99.90;12.80;163505.00;;;;4957606;28;20212;-76
2023/01/12 03:34:12;;;;;;;0.10;0.10;;;7.20;99.90;12.80;163505.00;;;;4957383;28;20196;-78
2023/01/12 03:36:55;;;;;;;0.10;0.10;;;7.20;99.90;12.80;163505.00;;;;4957129;29;20194;-78
2023/01/12 03:39:34;;;;;;;0.05;0.05;;;7.20;99.90;12.80;163505.00;;;;4965286;28;20197;-78
2023/01/12 03:42:09;;;;;;;0.10;0.10;;;7.20;99.90;12.80;163505.00;;;;4976128;28;20579;-78
2023/01/12 03:44:49;;;;;;;0.10;0.10;;;7.20;99.90;12.80;163505.00;;;;4966492;28;20212;-77
2023/01/12 03:47:24;;;;;;;0.05;0.05;;;7.20;99.90;12.80;163505.00;;;;4970717;28;20203;-76
2023/01/12 03:49:59;;;;;;;0.00;0.00;;;7.30;99.90;12.80;163505.00;;;;4995041;28;20196;-76
2023/01/12 03:52:30;;;;;;;0.10;0.10;;;7.30;99.90;12.80;163505.00;;;;4969640;28;20283;-76
2023/01/12 03:55:01;;;;;;;0.10;0.10;;;7.30;99.90;12.80;163505.00;;;;4971947;28;20197;-77
2023/01/12 03:57:32;;;;;;;0.10;0.10;;;7.30;99.90;12.80;163505.00;;;;4978187;28;20220;-77
2023/01/12 04:00:03;;;;;;;0.10;0.10;;;7.30;99.90;12.80;163505.00;;;;4977329;28;20185;-77
2023/01/12 04:02:39;;;;;;;0.00;0.00;;;7.30;99.90;12.80;163505.00;;;;4961293;28;20607;-76
2023/01/12 04:05:11;;;;;;;0.00;0.00;;;7.30;99.90;12.80;163505.00;;;;4968408;28;20197;-76
2023/01/12 04:07:40;;;;;;;0.10;0.10;;;7.30;99.90;12.80;163505.00;;;;4974132;28;20701;-76
2023/01/12 04:10:09;;;;;;;0.10;0.10;;;7.30;99.90;12.80;163505.00;;;;4976971;28;20185;-79
2023/01/12 04:12:37;;;;;;;0.10;0.10;;;7.30;99.90;12.80;163505.00;;;;4975281;28;20221;-79
2023/01/12 04:15:06;;;;;;;0.10;0.10;;;7.30;99.90;12.80;163505.00;;;;4966899;28;20198;-78
2023/01/12 04:17:34;;;;;;;0.10;0.10;;;7.30;99.90;12.80;163505.00;;;;4958198;29;20201;-78
2023/01/12 04:20:02;;;;;;;0.10;0.10;;;7.30;99.90;12.80;163505.00;;;;4976203;28;20252;-77
2023/01/12 04:22:43;;;;;;;0.10;0.10;;;7.30;99.90;12.80;163505.00;;;;4979881;28;20224;-79
2023/01/12 04:25:13;;;;;;;0.10;0.10;;;7.30;99.90;12.80;163505.00;;;;4987389;28;20735;-79
2023/01/12 04:27:45;;;;;;;0.00;0.00;;;7.30;99.90;12.80;163505.00;;;;4994021;28;20255;-77
2023/01/12 04:30:14;;;;;;;0.10;0.10;;;7.30;99.90;12.80;163505.00;;;;4975309;28;20204;-77
2023/01/12 04:32:43;;;;;;;0.05;0.05;;;7.30;99.90;12.80;163505.00;;;;4955074;28;20434;-77
2023/01/12 04:35:12;;;;;;;0.00;0.00;;;7.30;99.90;12.80;163505.00;;;;4968829;28;20197;-77
2023/01/12 04:37:43;;;;;;;0.10;0.10;;;7.30;99.90;12.80;163505.00;;;;4977688;28;20193;-80
2023/01/12 04:40:14;;;;;;;0.10;0.10;;;7.40;99.90;12.80;163505.00;;;;4976924;28;20212;-78
2023/01/12 04:43:00;;;;;;;0.10;0.10;;;7.40;99.90;12.80;163505.00;;;;4970734;28;20232;-78
2023/01/12 04:45:31;;;;;;;0.00;0.00;;;7.40;99.90;12.80;163505.00;;;;4952342;29;20236;-78
2023/01/12 04:48:02;;;;;;;0.10;0.10;;;7.40;99.90;12.80;163505.00;;;;4985960;28;20216;-78
2023/01/12 04:50:31;;;;;;;0.10;0.10;;;7.40;99.90;12.80;163505.00;;;;4955651;28;20606;-78
2023/01/12 04:53:02;;;;;;;0.00;0.00;;;7.40;99.90;12.80;163505.00;;;;4957717;28;20710;-77
2023/01/12 04:55:30;;;;;;;0.10;0.10;;;7.40;99.90;12.80;163505.00;;;;4955169;28;20198;-77
2023/01/12 04:57:58;;;;;;;0.10;0.10;;;7.40;99.90;12.80;163505.00;;;;4955121;29;20235;-77
2023/01/12 05:00:26;;;;;;;0.10;0.10;;;7.40;99.90;12.80;163505.00;;;;4956480;28;20190;-77
2023/01/12 05:02:56;;;;;;;0.10;0.10;;;7.40;99.90;12.80;163505.00;;;;4958294;28;20261;-77
2023/01/12 05:05:25;;;;;;;0.10;0.10;;;7.40;99.90;12.80;163505.00;;;;4953610;28;20205;-77
2023/01/12 05:10:51;;;;;;;0.10;0.10;;;7.50;99.90;12.80;163505.00;;;;4987659;28;20782;-78
2023/01/12 05:13:20;;;;;;;0.10;0.10;;;7.50;99.90;12.80;163505.00;;;;4971547;28;20204;-78
2023/01/12 05:15:48;;;;;;;0.08;0.08;;;7.50;99.90;12.80;163505.00;;;;4973866;28;20207;-78
2023/01/12 05:18:16;;;;;;;0.10;0.10;;;7.50;99.90;12.80;163505.00;;;;4975112;28;20256;-78
2023/01/12 05:20:44;;;;;;;0.10;0.10;;;7.50;99.90;12.80;163505.00;;;;4974485;28;20201;-78
2023/01/12 05:23:12;;;;;;;0.10;0.10;;;7.50;99.90;12.80;163505.00;;;;4975789;28;20714;-79
2023/01/12 05:25:40;;;;;;;0.10;0.10;;;7.50;99.90;12.80;163505.00;;;;4957846;29;20248;-78
2023/01/12 05:28:09;;;;;;;0.10;0.10;;;7.50;99.90;12.80;163505.00;;;;4958386;29;20670;-79
2023/01/12 05:30:37;;;;;;;0.00;0.00;;;7.60;99.90;12.80;163505.00;;;;4949789;28;20285;-79
2023/01/12 05:33:05;;;;;;;0.00;0.00;;;7.60;99.90;12.80;163505.00;;;;4970056;28;20321;-79
2023/01/12 05:35:33;;;;;;;0.10;0.10;;;7.60;99.90;12.80;163505.00;;;;4982645;28;21394;-79
2023/01/12 05:38:01;;;;;;;0.00;0.00;;;7.60;99.90;12.80;163505.00;;;;4990345;28;20196;-78
2023/01/12 05:40:29;;;;;;;0.10;0.10;;;7.60;99.90;12.80;163505.00;;;;4988268;28;20635;-79
2023/01/12 05:45:45;;;;;;;0.10;0.10;;;7.50;99.90;12.80;163505.00;;;;4971369;28;20279;-78
2023/01/12 05:48:14;;;;;;;0.10;0.10;;;7.50;99.90;12.80;163505.00;;;;4973989;28;20200;-77
2023/01/12 05:50:42;;;;;;;0.10;0.10;;;7.40;99.90;12.80;163505.00;;;;4974121;28;20204;-78
2023/01/12 05:53:10;;;;;;;0.10;0.10;;;7.40;99.90;12.80;163505.00;;;;4973572;28;20221;-76
2023/01/12 05:55:38;;;;;;;0.10;0.10;;;7.30;99.90;12.80;163505.00;;;;4972513;28;20267;-76
2023/01/12 05:58:07;;;;;;;0.10;0.10;;;7.30;99.90;12.80;163505.00;;;;4963530;28;20705;-76
2023/01/12 06:00:35;;;;;;;0.10;0.10;;;7.30;99.90;12.80;163505.00;;;;4968648;28;20196;-79
2023/01/12 06:03:04;;;;;;;0.10;0.10;;;7.30;99.90;12.80;163505.00;;;;4973947;28;20225;-79
2023/01/12 06:05:32;;;;;;;0.10;0.10;;;7.30;99.90;12.80;163505.00;;;;4972840;28;20197;-79
2023/01/12 06:08:01;;;;;;;0.10;0.10;;;7.30;99.90;12.80;163505.00;;;;4974614;28;20189;-78
2023/01/12 06:10:29;;;;;;;0.10;0.10;;;7.30;99.90;12.80;163505.00;;;;4974802;28;20220;-78
2023/01/12 06:15:43;;;;;;;0.00;0.00;;;7.20;99.90;12.80;163505.00;;;;4969827;28;20204;-76
2023/01/12 06:18:12;;;;;;;0.10;0.10;;;7.30;99.90;12.80;163505.00;;;;4973647;28;20197;-79
2023/01/12 06:20:40;;;;;;;0.10;0.10;;;7.30;99.90;12.80;163505.00;;;;4972910;28;20259;-77
2023/01/12 06:23:08;;;;;;;0.10;0.10;;;7.30;99.90;12.80;163505.00;;;;4965711;28;20224;-75
2023/01/12 06:25:36;;;;;;;0.10;0.10;;;7.40;99.90;12.80;163505.00;;;;4972054;28;20208;-75
2023/01/12 06:28:05;;;;;;;0.10;0.10;;;7.40;99.90;12.80;163505.00;;;;4973780;28;20200;-75
2023/01/12 06:30:33;;;;;;;0.10;0.10;;;7.40;99.90;12.80;163505.00;;;;4972533;28;20763;-75
2023/01/12 06:33:02;;;;;;;0.10;0.10;;;7.40;99.90;12.80;163505.00;;;;4972229;28;20217;-73
2023/01/12 06:35:31;;;;;;;0.10;0.10;;;7.40;99.90;12.80;163505.00;;;;4944149;29;20344;-79
2023/01/12 06:37:59;;;;;;;0.10;0.10;;;7.40;99.90;12.80;163505.00;;;;4973309;28;20467;-78
2023/01/12 06:40:29;;;;;;;0.10;0.10;;;7.50;99.90;12.80;163505.00;;;;4973001;28;20211;-77
2023/01/12 06:42:56;;;;;;;0.10;0.10;;;7.50;99.90;12.80;163505.00;;;;4973525;28;20236;-79
2023/01/12 06:45:24;;;;;;;0.10;0.10;;;7.50;99.90;12.80;163505.00;;;;4965310;28;20610;-77
2023/01/12 06:47:52;;;;;;;0.10;0.10;;;7.50;99.90;12.80;163505.00;;;;4976537;28;20201;-77
2023/01/12 06:50:20;;;;;;;0.10;0.10;;;7.50;99.90;12.80;163505.00;;;;4976628;28;20216;-77
2023/01/12 06:52:49;;;;;;;0.10;0.10;;;7.40;99.90;12.80;163505.00;;;;4976414;28;20274;-78
2023/01/12 06:55:19;;;;;;;0.10;0.10;;;7.50;99.90;12.80;163505.00;;;;4962693;28;20206;-77
2023/01/12 06:57:47;;;;;;;0.10;0.10;;;7.40;99.90;12.80;163505.00;;;;4976521;28;20201;-77
2023/01/12 07:00:15;;;;;;;0.10;0.10;;;7.40;99.90;12.80;163505.00;;;;4977231;28;20197;-78
2023/01/12 07:02:43;;;;;;;0.10;0.10;;;7.50;99.90;12.80;163505.00;;;;4977184;28;20710;-77
2023/01/12 07:05:11;;;;;;;0.10;0.10;;;7.40;99.90;12.80;163505.00;;;;4976213;28;20204;-77
2023/01/12 07:07:43;;;;;;;0.10;0.10;;;7.40;99.90;12.80;163505.00;;;;4977368;28;20252;-78
2023/01/12 07:10:12;;;;;;;0.10;0.10;;;7.40;99.90;12.80;163505.00;;;;4977764;28;20208;-77
2023/01/12 07:12:40;;;;;;;0.10;0.10;;;7.40;99.90;12.80;163505.00;;;;4976672;28;20236;-77
2023/01/12 07:15:09;;;;;;;0.10;0.10;;;7.40;99.90;12.80;163505.00;;;;4976846;28;20568;-77
2023/01/12 07:17:38;;;;;;;0.10;0.10;;;7.40;99.90;12.80;163505.00;;;;4979713;28;20197;-78
2023/01/12 07:20:07;;;;;;;0.10;0.10;;;7.50;99.90;12.80;163505.00;;;;4976401;28;20189;-77
2023/01/12 07:22:35;;;;;;;0.10;0.10;;;7.50;99.90;12.80;163505.00;;;;4976418;28;20224;-78
2023/01/12 07:25:05;;;;;;;0.10;0.10;;;7.50;99.90;12.80;163505.00;;;;4970749;28;20209;-79
2023/01/12 07:27:34;;;;;;;0.10;0.10;;;7.50;99.90;12.80;163505.00;;;;4977361;28;20313;-77
2023/01/12 07:30:02;;;;;;;0.10;0.10;;;7.50;99.90;12.80;163505.00;;;;4976573;28;20221;-78
2023/01/12 07:32:30;;;;;;;0.10;0.10;;;7.60;99.90;12.80;163505.00;;;;4975997;28;20284;-78
2023/01/12 07:34:58;;;;;;;0.10;0.10;;;7.60;99.90;12.80;163505.00;;;;4977603;28;20766;-76
2023/01/12 07:37:26;;;;;;;0.10;0.10;;;7.60;99.90;12.80;163505.00;;;;4978481;28;20203;-77
2023/01/12 07:39:54;;;;;;;0.10;0.10;;;7.60;99.90;12.80;163505.00;;;;4981262;28;20197;-79
2023/01/12 07:42:25;;;;;;;0.10;0.10;;;7.70;99.90;12.80;163505.00;;;;4976139;28;20279;-77
2023/01/12 07:44:55;;;;;;;0.10;0.10;;;7.70;99.90;12.80;163505.00;;;;4980890;28;20193;-77
2023/01/12 07:47:23;;;;;;;0.10;0.10;;;7.80;99.90;12.80;163505.00;;;;4979118;28;20189;-79
2023/01/12 07:49:51;;;;;;;0.10;0.10;;;7.80;99.90;12.80;163505.00;;;;4978975;28;20221;-77
2023/01/12 07:52:19;;;;;;;0.10;0.10;;;7.80;99.90;12.80;163505.00;;;;4967455;28;20260;-77
2023/01/12 07:54:47;;;;;;;0.10;0.10;;;7.80;99.90;12.80;163505.00;;;;4973347;28;20229;-77
2023/01/12 07:57:15;;;;;;;0.03;0.03;;;7.80;99.90;12.80;163505.00;;;;4989782;28;20208;-80
2023/01/12 07:59:44;;;;;;;0.10;0.10;;;7.80;99.90;12.80;163505.00;;;;4976032;28;20259;-77
2023/01/12 08:02:15;;;;;;;0.10;0.10;;;7.80;99.90;12.80;163505.00;;;;4975465;28;20228;-76
2023/01/12 08:04:44;;;;;;;0.10;0.10;;;7.80;99.90;12.80;163505.00;;;;4976050;28;20232;-77
2023/01/12 08:07:13;;;;;;;0.10;0.10;;;7.80;99.90;12.80;163505.00;;;;4975495;28;20263;-78
2023/01/12 08:09:41;;;;;;;0.10;0.10;;;7.90;99.90;12.80;163505.00;;;;4957728;28;20299;-77
2023/01/12 08:12:09;;;;;;;0.10;0.10;;;7.90;99.90;12.80;163505.00;;;;4975300;28;20213;-77
2023/01/12 08:14:40;;;;;;;0.10;0.10;;;7.90;99.90;12.80;163505.00;;;;4975135;28;20294;-78
2023/01/12 08:17:17;;;;;;;0.10;0.10;;;7.90;99.90;12.80;163505.00;;;;4976047;28;20197;-73
2023/01/12 08:19:53;;;;;;;0.10;0.10;;;7.90;99.90;12.80;163505.00;;;;4975073;28;20329;-77
2023/01/12 08:22:27;;;;;;;0.10;0.10;;;7.90;99.90;12.80;163505.00;;;;4974993;28;20224;-76
2023/01/12 08:25:03;;;;;;;0.10;0.10;;;7.90;99.90;12.80;163505.00;;;;4974019;28;20442;-78
2023/01/12 08:27:35;;;;;;;0.10;0.10;;;7.90;99.90;12.80;163505.00;;;;4964761;28;20197;-77
2023/01/12 08:30:07;;;;;;;0.10;0.10;;;7.90;99.90;12.80;163505.00;;;;4955689;29;20216;-77
2023/01/12 08:32:37;;;;;;;0.10;0.10;;;7.90;99.90;12.80;163505.00;;;;4955733;28;20737;-80
2023/01/12 08:35:07;;;;;;;0.10;0.10;;;7.90;99.90;12.80;163505.00;;;;4974119;28;20839;-78
2023/01/12 08:37:35;;;;;;;0.10;0.10;;;7.90;99.90;12.80;163505.00;;;;4964947;28;20453;-77
2023/01/12 08:40:06;;;;;;;0.10;0.10;;;7.90;99.90;12.80;163505.00;;;;4972724;28;20209;-77
2023/01/12 08:42:34;;;;;;;0.10;0.10;;;7.90;99.90;12.80;163505.00;;;;4970238;28;20227;-82
2023/01/12 08:45:02;;;;;;;0.10;0.10;;;7.90;99.90;12.80;163505.00;;;;4974835;28;20193;-78
2023/01/12 08:47:30;;;;;;;0.10;0.10;;;7.90;99.90;12.80;163505.00;;;;4967635;28;20237;-77
2023/01/12 08:50:00;;;;;;;0.10;0.10;;;7.80;99.90;12.80;163505.00;;;;4974765;28;20224;-79
2023/01/12 08:52:30;;;;;;;0.10;0.10;;;7.80;99.90;12.80;163505.00;;;;4974866;28;20221;-77
2023/01/12 08:54:58;;;;;;;0.10;0.10;;;7.80;99.90;12.80;163505.00;;;;4955122;29;20245;-77
2023/01/12 08:57:26;;;;;;;0.10;0.10;;;7.80;99.90;12.80;163505.00;;;;4955649;28;20256;-78
2023/01/12 08:59:54;;;;;;;0.10;0.10;;;7.80;99.90;12.80;163505.00;;;;4974212;28;20630;-78
2023/01/12 09:02:24;;;;;;;0.10;0.10;;;7.80;99.90;12.80;163505.00;;;;4974116;28;20220;-78
2023/01/12 09:04:52;;;;;;;0.10;0.10;;;7.80;99.90;12.80;163505.00;;;;4974061;28;20228;-77
2023/01/12 09:07:21;;;;;;;0.10;0.10;;;7.80;99.90;12.80;163505.00;;;;4973803;28;20351;-77
2023/01/12 09:09:50;;;;;;;0.10;0.10;;;7.80;99.90;12.80;163505.00;;;;4974115;28;20193;-77
2023/01/12 09:12:18;;;;;;;0.10;0.10;;;7.80;99.90;12.80;163505.00;;;;4974096;28;20702;-77
2023/01/12 09:14:46;;;;;;;0.10;0.10;;;7.80;99.90;12.80;163505.00;;;;4974569;28;20251;-79
2023/01/12 09:17:14;;;;;;;0.10;0.10;;;7.80;99.90;12.80;163505.00;;;;4964530;28;20210;-79
2023/01/12 09:19:48;;;;;;;0.10;0.10;;;7.80;99.90;12.80;163505.00;;;;4969343;28;20200;-77
2023/01/12 09:22:17;;;;;;;0.10;0.10;;;7.80;99.90;12.80;163505.00;;;;4974132;28;20220;-77
2023/01/12 09:24:46;;;;;;;0.10;0.10;;;7.80;99.90;12.80;163505.00;;;;4974037;28;20613;-78
2023/01/12 09:27:14;;;;;;;0.10;0.10;;;7.80;99.90;12.80;163505.00;;;;4971718;28;20594;-78
2023/01/12 09:29:42;;;;;;;0.10;0.10;;;7.80;99.90;12.80;163505.00;;;;4972289;28;20194;-77
2023/01/12 09:32:10;;;;;;;0.10;0.10;;;7.80;99.90;12.80;163505.00;;;;4956848;28;20279;-78
2023/01/12 09:34:39;;;;;;;0.10;0.10;;;7.70;99.90;12.80;163505.00;;;;4972747;28;20201;-78
2023/01/12 09:37:07;;;;;;;0.10;0.10;;;7.70;99.90;12.80;163505.00;;;;4973350;28;20201;-79
2023/01/12 09:39:35;;;;;;;0.10;0.10;;;7.70;99.90;12.80;163505.00;;;;4973784;28;20197;-77
2023/01/12 09:47:54;;;;;;;0.10;0.10;;;7.70;99.90;12.80;163505.00;;;;4964290;28;20193;-78
2023/01/12 09:50:26;;;;;;;0.10;0.10;;;7.70;99.90;12.80;163505.00;;;;4972315;28;20211;-80
2023/01/12 09:53:01;;;;;;;0.10;0.10;;;7.70;99.90;12.80;163505.00;;;;4974091;28;20221;-78
2023/01/12 09:55:38;;;;;;;0.10;0.10;;;7.70;99.90;12.80;163505.00;;;;4974450;28;20532;-78
2023/01/12 09:58:34;;;;;;;0.10;0.10;;;7.70;99.90;12.80;163505.00;;;;4953455;29;20244;-78
2023/01/12 10:01:10;;;;;;;0.10;0.10;;;7.70;99.90;12.80;163505.00;;;;4970517;28;20212;-79
2023/01/12 10:03:51;;;;;;;0.10;0.10;;;7.70;99.90;12.80;163505.00;;;;4973828;28;20193;-78
2023/01/12 10:06:20;;;;;;;0.10;0.10;;;7.70;99.90;12.80;163505.00;;;;4973408;28;20197;-78
2023/01/12 10:08:53;;;;;;;0.10;0.10;;;7.70;99.90;12.80;163505.00;;;;4966790;28;20224;-78
2023/01/12 10:11:30;;;;;;;0.10;0.10;;;7.70;99.90;12.80;163505.00;;;;4972541;28;20585;-78
2023/01/12 10:14:51;;;;;;;0.10;0.10;;;7.70;99.90;12.80;163505.00;;;;4973239;28;20204;-77
2023/01/12 10:17:31;;;;;;;0.10;0.10;;;7.70;99.90;12.80;163505.00;;;;4954243;28;20689;-77
2023/01/12 10:20:23;;;;;;;0.10;0.10;;;7.70;99.90;12.80;163505.00;;;;4967133;28;20515;-78
2023/01/12 10:22:56;;;;;;;0.10;0.10;;;7.70;99.90;12.80;163505.00;;;;4967991;28;20637;-78
2023/01/12 10:25:34;;;;;;;0.10;0.10;;;7.70;99.90;12.80;163505.00;;;;4977519;28;20236;-77
2023/01/12 10:28:08;;;;;;;0.10;0.10;;;7.70;99.90;12.80;163505.00;;;;4977472;28;20562;-77
2023/01/12 10:30:40;;;;;;;0.00;0.00;;;7.70;99.90;12.80;163505.00;;;;4960359;28;20205;-78
2023/01/12 10:33:15;;;;;;;0.10;0.10;;;7.70;99.90;12.80;163505.00;;;;4972491;28;20701;-78
2023/01/12 10:35:57;;;;;;;0.10;0.10;;;7.70;99.90;12.80;163505.00;;;;4977091;28;20625;-78
2023/01/12 10:38:30;;;;;;;0.10;0.10;;;7.80;99.90;12.80;163505.00;;;;4976762;28;20658;-77
2023/01/12 10:41:21;;;;;;;0.10;0.10;;;7.80;99.90;12.80;163505.00;;;;4977638;28;20279;-78
2023/01/12 10:44:12;;;;;;;0.10;0.10;;;7.80;99.90;12.80;163505.00;;;;4975195;28;20211;-77
2023/01/12 10:46:42;;;;;;;0.10;0.10;;;7.80;99.90;12.80;163505.00;;;;4977075;28;20201;-78
2023/01/12 10:49:18;;;;;;;0.10;0.10;;;7.80;99.90;12.80;163505.00;;;;4976795;28;20200;-79
2023/01/12 10:51:56;;;;;;;0.10;0.10;;;7.80;99.90;12.80;163505.00;;;;4970227;28;20232;-78
2023/01/12 10:54:27;;;;;;;0.10;0.10;;;7.80;99.90;12.80;163505.00;;;;4966526;28;20220;-78
2023/01/12 10:57:02;;;;;;;0.10;0.10;;;7.80;99.90;12.80;163505.00;;;;4977670;28;20193;-78
2023/01/12 10:59:33;;;;;;;0.10;0.10;;;7.80;99.90;12.80;163505.00;;;;4975830;28;20205;-79
2023/01/12 11:02:15;;;;;;;0.10;0.10;;;7.80;99.90;12.80;163505.00;;;;4967070;28;20710;-78
2023/01/12 11:04:47;;;;;;;0.10;0.10;;;7.80;99.90;12.80;163505.00;;;;4964825;28;20233;-79
2023/01/12 11:07:18;;;;;;;0.10;0.10;;;7.80;99.90;12.80;163505.00;;;;4979150;28;20206;-79
2023/01/12 11:09:46;;;;;;;0.10;0.10;;;7.80;99.90;12.80;163505.00;;;;4996248;28;20200;-79
2023/01/12 11:12:25;;;;;;;0.10;0.10;;;7.80;99.90;12.80;163505.00;;;;4982106;28;20279;-78
2023/01/12 11:15:03;;;;;;;0.10;0.10;;;7.80;99.90;12.80;163505.00;;;;4969502;28;20212;-79
2023/01/12 11:17:54;;;;;;;0.00;0.00;;;7.80;99.90;12.80;163505.00;;;;4977097;28;20688;-80
2023/01/12 11:20:31;;;;;;;0.10;0.10;;;7.80;99.90;12.80;163505.00;;;;4978312;28;20212;-79
2023/01/12 11:23:03;;;;;;;0.10;0.10;;;7.80;99.90;12.80;163505.00;;;;4965194;28;20221;-77
2023/01/12 11:25:38;;;;;;;0.10;0.10;;;7.80;99.90;12.80;163505.00;;;;4957490;29;20671;-77
2023/01/12 11:28:15;;;;;;;0.10;0.10;;;7.90;99.90;12.80;163505.00;;;;4975049;28;20511;-78
2023/01/12 11:30:50;;;;;;;0.10;0.10;;;7.90;99.90;12.80;163505.00;;;;4975751;28;20207;-77
2023/01/12 11:33:26;;;;;;;0.10;0.10;;;7.90;99.90;12.80;163505.00;;;;4976025;28;20252;-77
2023/01/12 11:36:02;;;;;;;0.10;0.10;;;7.90;99.90;12.80;163505.00;;;;4972193;28;20675;-77
2023/01/12 11:38:39;;;;;;;0.00;0.00;;;7.90;99.90;12.80;163505.00;;;;4961748;28;20658;-77